createdAt,value
2018-10-18T00:01:08.902Z,52.83
2018-10-18T00:04:00.699Z,51.13
2018-10-18T00:06:52.100Z,50.70
2018-10-18T00:09:43.712Z,47.83
2018-10-18T00:13:14.358Z,50.93
2018-10-18T00:16:03.453Z,53.10
2018-10-18T00:19:09.029Z,53.57
2018-10-18T00:22:06.259Z,51.27
2018-10-18T00:24:58.626Z,47.37
2018-10-18T00:28:08.599Z,48.63
2018-10-18T00:31:18.564Z,44.80
2018-10-18T00:34:09.598Z,45.73
2018-10-18T00:37:01.262Z,46.20
2018-10-18T00:40:30.819Z,45.17
2018-10-18T00:46:19.610Z,41.97
2018-10-18T00:49:10.958Z,42.67
2018-10-18T00:52:03.014Z,40.60
2018-10-18T00:57:51.395Z,40.17
2018-10-18T01:00:42.403Z,40.10
2018-10-18T01:03:33.419Z,39.47
2018-10-18T01:06:24.452Z,38.83
2018-10-18T01:09:15.763Z,37.30
2018-10-18T01:12:06.741Z,35.73
2018-10-18T01:14:57.666Z,35.60
2018-10-18T01:17:48.723Z,37.07
2018-10-18T01:20:39.799Z,37.67
2018-10-18T01:23:30.739Z,36.27
2018-10-18T01:26:21.765Z,35.87
2018-10-18T01:29:12.851Z,35.73
2018-10-18T01:32:04.028Z,37.37
2018-10-18T01:34:55.711Z,36.80
2018-10-18T01:37:47.151Z,35.97
2018-10-18T01:40:38.761Z,36.13
2018-10-18T01:43:29.755Z,35.70
2018-10-18T01:48:57.732Z,35.53
2018-10-18T01:51:48.804Z,36.13
2018-10-18T01:54:53.854Z,35.47
2018-10-18T01:57:30.937Z,36.40
2018-10-18T02:00:22.193Z,35.40
2018-10-18T02:03:15.117Z,37.27
2018-10-18T02:06:06.451Z,36.80
2018-10-18T02:08:57.488Z,35.40
2018-10-18T02:11:49.028Z,35.80
2018-10-18T02:14:40.040Z,33.97
2018-10-18T02:17:31.507Z,33.47
2018-10-18T02:20:22.633Z,34.57
2018-10-18T02:23:13.964Z,34.17
2018-10-18T02:26:04.989Z,34.67
2018-10-18T02:28:57.690Z,33.37
2018-10-18T02:31:50.311Z,33.20
2018-10-18T02:34:41.331Z,34.57
2018-10-18T02:37:32.395Z,32.33
2018-10-18T02:40:43.108Z,35.23
2018-10-18T02:43:34.423Z,34.40
2018-10-18T02:46:25.409Z,30.60
2018-10-18T02:49:16.452Z,31.10
2018-10-18T02:52:27.689Z,29.80
2018-10-18T02:55:18.799Z,29.80
2018-10-18T02:58:10.070Z,27.80
2018-10-18T03:01:01.046Z,27.80
2018-10-18T03:03:52.422Z,28.10
2018-10-18T03:09:34.511Z,28.20
2018-10-18T03:12:25.504Z,29.33
2018-10-18T03:15:16.529Z,26.77
2018-10-18T03:18:07.991Z,28.77
2018-10-18T03:20:39.993Z,28.80
2018-10-18T03:23:31.017Z,28.30
2018-10-18T03:26:15.151Z,29.80
2018-10-18T03:29:06.137Z,29.90
2018-10-18T03:31:57.114Z,30.43
2018-10-18T03:34:48.199Z,31.27
2018-10-18T03:37:39.480Z,30.37
2018-10-18T03:40:30.658Z,30.80
2018-10-18T03:43:22.384Z,28.97
2018-10-18T03:46:13.462Z,31.20
2018-10-18T03:49:05.407Z,29.33
2018-10-18T03:51:56.437Z,29.07
2018-10-18T03:55:06.011Z,30.13
2018-10-18T03:57:56.979Z,29.87
2018-10-18T04:00:48.272Z,31.63
2018-10-18T04:03:39.661Z,30.70
2018-10-18T04:06:42.674Z,30.43
2018-10-18T04:09:52.615Z,28.97
2018-10-18T04:12:31.919Z,29.17
2018-10-18T04:15:22.926Z,27.47
2018-10-18T04:18:14.398Z,28.93
2018-10-18T04:50:20.787Z,26.30
2018-10-18T04:58:56.248Z,35.50
2018-10-18T05:53:59.886Z,29.73
2018-10-18T05:56:50.252Z,30.53
2018-10-18T05:59:40.900Z,31.40
2018-10-18T06:02:31.632Z,30.00
2018-10-18T06:40:21.093Z,27.40
2018-10-18T06:49:03.632Z,27.63
2018-10-18T07:43:50.581Z,20.70
2018-10-18T07:49:34.199Z,21.90
2018-10-18T08:04:22.204Z,19.67
2018-10-18T08:39:11.101Z,14.90
2018-10-18T08:42:01.718Z,15.00
2018-10-18T09:08:21.589Z,13.20
2018-10-18T09:29:02.235Z,13.83
2018-10-18T09:31:39.391Z,15.07
2018-10-18T09:49:00.819Z,15.70
2018-10-18T09:51:51.409Z,13.77
2018-10-18T10:18:04.188Z,15.67
2018-10-18T10:26:34.561Z,15.13
2018-10-18T10:29:08.053Z,15.83
2018-10-18T10:31:38.058Z,16.40
2018-10-18T10:34:10.183Z,15.37
2018-10-18T10:36:41.910Z,15.60
2018-10-18T10:39:13.720Z,16.13
2018-10-18T10:41:45.376Z,19.73
2018-10-18T10:44:18.865Z,16.77
2018-10-18T10:46:50.435Z,16.67
2018-10-18T10:49:22.148Z,17.90
2018-10-18T10:51:53.879Z,17.20
2018-10-18T10:54:25.568Z,17.53
2018-10-18T10:56:57.324Z,18.20
2018-10-18T10:59:29.015Z,17.20
2018-10-18T11:02:00.740Z,18.67
2018-10-18T11:04:32.430Z,17.97
2018-10-18T11:07:04.164Z,18.93
2018-10-18T11:09:35.949Z,17.07
2018-10-18T11:12:07.911Z,18.20
2018-10-18T11:14:39.923Z,17.67
2018-10-18T11:17:11.318Z,18.63
2018-10-18T11:19:43.005Z,17.77
2018-10-18T11:22:14.716Z,17.07
2018-10-18T11:24:46.523Z,16.93
2018-10-18T11:27:18.306Z,17.00
2018-10-18T11:29:49.935Z,16.30
2018-10-18T11:32:21.639Z,17.27
2018-10-18T11:34:54.603Z,15.93
2018-10-18T11:37:26.793Z,17.07
2018-10-18T11:39:59.082Z,16.87
2018-10-18T11:42:31.258Z,15.67
2018-10-18T11:45:03.559Z,16.47
2018-10-18T11:47:35.887Z,15.73
2018-10-18T11:50:08.495Z,15.03
2018-10-18T11:52:40.654Z,14.10
2018-10-18T11:55:12.360Z,13.03
2018-10-18T11:57:44.047Z,13.30
2018-10-18T12:00:19.300Z,11.47
2018-10-18T12:02:51.508Z,10.53
2018-10-18T12:05:23.369Z,10.27
2018-10-18T12:07:55.493Z,10.27
2018-10-18T12:10:28.557Z,10.10
2018-10-18T12:13:00.351Z,8.83
2018-10-18T12:15:32.681Z,6.97
2018-10-18T12:18:04.914Z,4.30
2018-10-18T12:20:37.187Z,3.27
2018-10-18T12:23:09.451Z,2.40
2018-10-18T12:25:41.791Z,2.10
2018-10-18T12:28:13.966Z,2.17
2018-10-18T12:30:46.358Z,1.73
2018-10-18T12:33:18.575Z,1.77
2018-10-18T12:35:50.893Z,1.83
2018-10-18T12:38:23.128Z,2.17
2018-10-18T12:40:55.596Z,1.90
2018-10-18T12:43:27.630Z,2.77
2018-10-18T12:45:59.940Z,2.67
2018-10-18T12:48:31.580Z,2.67
2018-10-18T12:51:03.307Z,2.60
2018-10-18T12:53:35.008Z,3.10
2018-10-18T12:56:07.064Z,2.77
2018-10-18T12:58:38.692Z,2.50
2018-10-18T13:01:10.408Z,2.57
2018-10-18T13:03:42.095Z,2.77
2018-10-18T13:06:13.860Z,3.30
2018-10-18T13:08:45.489Z,3.40
2018-10-18T13:11:17.182Z,2.83
2018-10-18T13:13:48.859Z,3.03
2018-10-18T13:16:20.563Z,2.80
2018-10-18T13:18:52.289Z,2.93
2018-10-18T13:21:24.075Z,3.00
2018-10-18T13:23:55.793Z,3.13
2018-10-18T13:26:27.437Z,3.17
2018-10-18T13:29:00.083Z,3.20
2018-10-18T13:31:31.945Z,3.73
2018-10-18T13:34:03.679Z,3.37
2018-10-18T13:36:35.293Z,3.37
2018-10-18T13:39:10.017Z,3.03
2018-10-18T13:41:41.697Z,3.50
2018-10-18T13:44:13.385Z,3.30
2018-10-18T13:46:45.062Z,3.20
2018-10-18T13:49:16.710Z,2.97
2018-10-18T13:51:48.399Z,3.50
2018-10-18T13:54:20.141Z,3.43
2018-10-18T13:56:51.814Z,3.40
2018-10-18T14:00:42.030Z,3.00
2018-10-18T14:03:13.751Z,3.43
2018-10-18T14:05:45.502Z,3.40
2018-10-18T14:08:17.231Z,3.20
2018-10-18T14:10:48.871Z,3.40
2018-10-18T14:13:20.574Z,3.00
2018-10-18T14:15:52.238Z,3.13
2018-10-18T14:18:24.009Z,2.43
2018-10-18T14:20:55.689Z,2.70
2018-10-18T14:23:27.397Z,2.30
2018-10-18T14:25:59.335Z,2.10
2018-10-18T14:28:31.080Z,1.90
2018-10-18T14:31:02.749Z,2.10
2018-10-18T14:33:34.458Z,1.80
2018-10-18T14:36:06.931Z,2.20
2018-10-18T14:38:38.642Z,2.30
2018-10-18T14:41:10.360Z,2.13
2018-10-18T14:43:42.093Z,1.87
2018-10-18T14:46:13.886Z,1.93
2018-10-18T14:48:45.551Z,2.53
2018-10-18T14:51:17.240Z,1.80
2018-10-18T14:53:48.904Z,1.93
2018-10-18T14:56:20.586Z,2.00
2018-10-18T14:58:52.317Z,2.00
2018-10-18T15:01:23.953Z,1.80
2018-10-18T15:03:55.655Z,1.53
2018-10-18T15:06:27.296Z,2.10
2018-10-18T15:08:58.962Z,1.93
2018-10-18T15:11:30.625Z,1.70
2018-10-18T15:14:02.304Z,1.20
2018-10-18T15:16:33.992Z,1.67
2018-10-18T15:19:05.680Z,1.57
2018-10-18T15:21:37.334Z,1.80
2018-10-18T15:24:09.113Z,1.27
2018-10-18T15:26:40.897Z,1.70
2018-10-18T15:29:12.522Z,1.47
2018-10-18T15:31:44.109Z,1.60
2018-10-18T15:34:15.904Z,1.50
2018-10-18T15:36:47.587Z,1.70
2018-10-18T15:39:19.333Z,1.60
2018-10-18T15:41:51.005Z,1.60
2018-10-18T15:46:54.363Z,1.80
2018-10-18T15:49:26.044Z,1.53
2018-10-18T15:51:57.695Z,1.60
2018-10-18T15:54:29.403Z,1.90
2018-10-18T15:57:01.039Z,1.67
2018-10-18T15:59:32.705Z,2.07
2018-10-18T16:02:04.391Z,1.77
2018-10-18T16:04:36.095Z,2.10
2018-10-18T16:07:07.856Z,2.07
2018-10-18T16:09:39.502Z,2.20
2018-10-18T16:12:11.214Z,1.83
2018-10-18T16:14:42.927Z,2.03
2018-10-18T16:17:14.830Z,1.83
2018-10-18T16:19:46.413Z,1.70
2018-10-18T16:22:18.164Z,1.63
2018-10-18T16:24:49.864Z,1.90
2018-10-18T16:27:21.609Z,1.60
2018-10-18T16:32:48.262Z,2.10
2018-10-18T16:39:49.330Z,4.13
2018-10-18T17:04:31.980Z,2.20
2018-10-18T17:07:22.486Z,2.47
2018-10-18T17:13:14.891Z,1.80
2018-10-18T17:33:42.500Z,1.77
2018-10-18T17:40:06.157Z,2.10
2018-10-18T17:42:14.696Z,1.97
2018-10-18T17:53:52.377Z,2.00
2018-10-18T18:02:47.748Z,2.27
2018-10-18T18:08:40.650Z,1.93
2018-10-18T18:11:31.223Z,2.77
2018-10-18T18:17:17.720Z,2.27
2018-10-18T18:37:16.449Z,2.80
2018-10-18T18:40:07.994Z,2.47
2018-10-18T19:01:04.598Z,5.20
2018-10-18T19:05:23.454Z,4.43
2018-10-18T19:09:41.702Z,2.40
2018-10-18T19:21:18.451Z,2.47
2018-10-18T19:41:49.927Z,2.37
2018-10-18T19:44:40.571Z,2.10
2018-10-18T19:47:31.197Z,1.70
2018-10-18T19:56:26.156Z,2.00
2018-10-18T19:59:16.713Z,1.90
2018-10-18T20:08:44.095Z,3.43
2018-10-18T20:37:29.228Z,3.70
2018-10-18T20:40:20.151Z,3.40
2018-10-18T20:46:02.164Z,3.60
2018-10-18T20:48:52.990Z,3.63
2018-10-18T20:51:25.221Z,3.20
2018-10-18T21:08:51.157Z,4.87
2018-10-18T21:11:42.191Z,4.13
2018-10-18T21:17:25.668Z,3.83
2018-10-18T21:20:16.606Z,3.30
2018-10-18T21:23:26.373Z,2.90
2018-10-18T21:34:52.512Z,2.70
2018-10-18T21:46:29.569Z,3.23
2018-10-18T21:49:20.855Z,3.23
2018-10-18T21:55:08.292Z,3.70
2018-10-18T22:06:46.457Z,3.70
2018-10-18T22:39:20.495Z,2.90
2018-10-18T22:42:11.525Z,3.03
2018-10-18T23:02:36.200Z,2.57
2018-10-18T23:05:27.170Z,2.40
2018-10-18T23:08:18.161Z,2.57
2018-10-18T23:11:09.203Z,3.10
2018-10-18T23:25:19.706Z,3.30
2018-10-18T23:28:11.432Z,3.03
2018-10-18T23:31:02.417Z,3.07
2018-10-18T23:34:07.344Z,3.60
2018-10-18T23:36:44.902Z,3.53
2018-10-18T23:39:36.406Z,3.30
2018-10-18T23:42:27.568Z,3.37
2018-10-18T23:45:22.007Z,3.17
2018-10-18T23:48:13.030Z,3.67
2018-10-18T23:51:04.050Z,3.10
2018-10-18T23:57:42.467Z,3.17
